Archival Weather

Fayette Rgnl Air Cntr Arp

Fayette Rgnl Air Cntr Arp, Texas (K3T5)

Report from: Thursday, September 22, 2022 1:55 AM CDT
Current time: Friday, February 3, 2023 10:42 PM CST

Current weather
Weather history
Weather forecast

Temperature22.7°C (72.9°F)
Dew point21.7°C (71.1°F)
Winds Calm
Visibility10 mi. (16.1 km)
Clouds Sky clear
Altimeter29.98 in.Hg (1015 mB)
Relative humidity94 %
Density altitude1,179 ft. (359 m)
Remarks Fully automated report
Automated weather observing station with precipitation discriminator
Flight conditions Visual Meteorological Conditions
Raw dataK3T5 220655Z AUTO 00000KT 10SM CLR 23/22 A2998 RMK AO2 T02270217
An unhandled exception has occurred. See browser dev tools for details. Reload 🗙